AAL2610 KDCA-KPWM
Flight info
| Callsign | AAL2610 |
|---|---|
| Flight time | N/A |
| Altitude | 37000 |
| Route | SOOKI6 SWANN BROSS Q419 RBV Q22 LLUND BDR SCOGS3 |
| Aircraft | A321/M-SDE3FGHIRWY/LB1 |
Departure
| Time | 2026-05-07 11:25 |
|---|---|
| Airport | Ronald Reagan Washington National Airport (KDCA) |
Arrival
| Time | N/A |
|---|---|
| Airport | Portland International Jetport (KPWM) |
| Time | Latitude | Longitude | Altitude | Speed | Heading |
|---|---|---|---|---|---|
| 2026-05-07 10:47 | 38.85247 | -77.04158 | 24 ft | 0 kts | 162° |
| 2026-05-07 11:13 | 38.85248 | -77.04159 | 24 ft | 1 kts | 162° |
| 2026-05-07 11:13 | 38.85271 | -77.04168 | 25 ft | 4 kts | 162° |
| 2026-05-07 11:13 | 38.85289 | -77.04176 | 25 ft | 4 kts | 123° |
| 2026-05-07 11:13 | 38.85292 | -77.04204 | 25 ft | 3 kts | 72° |
| 2026-05-07 11:14 | 38.85298 | -77.04181 | 25 ft | 3 kts | 72° |
| 2026-05-07 11:14 | 38.85299 | -77.04176 | 24 ft | 0 kts | 72° |
| 2026-05-07 11:18 | 38.85300 | -77.04173 | 24 ft | 1 kts | 72° |
| 2026-05-07 11:19 | 38.85303 | -77.04156 | 24 ft | 3 kts | 74° |
| 2026-05-07 11:19 | 38.85310 | -77.04126 | 24 ft | 4 kts | 75° |
| 2026-05-07 11:19 | 38.85320 | -77.04087 | 24 ft | 0 kts | 72° |
| 2026-05-07 11:21 | 38.85321 | -77.04086 | 24 ft | 1 kts | 72° |
| 2026-05-07 11:21 | 38.85334 | -77.04033 | 24 ft | 12 kts | 72° |
| 2026-05-07 11:21 | 38.85306 | -77.03921 | 25 ft | 15 kts | 158° |
| 2026-05-07 11:21 | 38.85199 | -77.03913 | 24 ft | 16 kts | 179° |
| 2026-05-07 11:22 | 38.85084 | -77.03909 | 24 ft | 17 kts | 178° |
| 2026-05-07 11:22 | 38.84963 | -77.03896 | 26 ft | 18 kts | 174° |
| 2026-05-07 11:22 | 38.84833 | -77.03880 | 24 ft | 19 kts | 176° |
| 2026-05-07 11:22 | 38.84705 | -77.03921 | 24 ft | 20 kts | 208° |
| 2026-05-07 11:23 | 38.84583 | -77.04006 | 26 ft | 19 kts | 221° |
| 2026-05-07 11:23 | 38.84522 | -77.04134 | 24 ft | 11 kts | 201° |
| 2026-05-07 11:23 | 38.84444 | -77.04126 | 24 ft | 12 kts | 166° |
| 2026-05-07 11:23 | 38.84358 | -77.04118 | 25 ft | 13 kts | 193° |
| 2026-05-07 11:24 | 38.84273 | -77.04169 | 25 ft | 14 kts | 206° |
| 2026-05-07 11:24 | 38.84179 | -77.04221 | 25 ft | 15 kts | 192° |
| 2026-05-07 11:24 | 38.84136 | -77.04143 | 27 ft | 12 kts | 66° |
| 2026-05-07 11:24 | 38.84210 | -77.04082 | 27 ft | 20 kts | 24° |
| 2026-05-07 11:25 | 38.84638 | -77.03827 | 27 ft | 112 kts | 26° |
| 2026-05-07 11:25 | 38.85546 | -77.03270 | 264 ft | 161 kts | 25° |
| 2026-05-07 11:25 | 38.86539 | -77.02640 | 1268 ft | 159 kts | 27° |
| 2026-05-07 11:25 | 38.87325 | -77.01606 | 2032 ft | 173 kts | 58° |
| 2026-05-07 11:26 | 38.87780 | -77.00052 | 2213 ft | 199 kts | 71° |
| 2026-05-07 11:26 | 38.88250 | -76.98278 | 2418 ft | 221 kts | 70° |
| 2026-05-07 11:26 | 38.88782 | -76.96303 | 2605 ft | 247 kts | 68° |
| 2026-05-07 11:26 | 38.89389 | -76.94124 | 3041 ft | 264 kts | 67° |
| 2026-05-07 11:27 | 38.90002 | -76.91913 | 3977 ft | 264 kts | 67° |
| 2026-05-07 11:27 | 38.90629 | -76.89671 | 4727 ft | 270 kts | 67° |
| 2026-05-07 11:27 | 38.91276 | -76.87355 | 5361 ft | 280 kts | 68° |
| 2026-05-07 11:27 | 38.92054 | -76.85023 | 5941 ft | 288 kts | 56° |
| 2026-05-07 11:28 | 38.93244 | -76.82925 | 6544 ft | 295 kts | 48° |
| 2026-05-07 11:28 | 38.94525 | -76.80838 | 7242 ft | 301 kts | 48° |
| 2026-05-07 11:28 | 38.95830 | -76.78702 | 7933 ft | 306 kts | 49° |
| 2026-05-07 11:28 | 38.97154 | -76.76529 | 8629 ft | 311 kts | 49° |
| 2026-05-07 11:29 | 38.98494 | -76.74329 | 9304 ft | 316 kts | 49° |
| 2026-05-07 11:29 | 38.99858 | -76.72083 | 9941 ft | 321 kts | 49° |
| 2026-05-07 11:29 | 39.01259 | -76.69770 | 10346 ft | 339 kts | 50° |
| 2026-05-07 11:29 | 39.02754 | -76.67304 | 10514 ft | 362 kts | 50° |
| 2026-05-07 11:30 | 39.04344 | -76.64678 | 10829 ft | 378 kts | 50° |
| 2026-05-07 11:30 | 39.05970 | -76.61986 | 11406 ft | 385 kts | 50° |
| 2026-05-07 11:30 | 39.07621 | -76.59242 | 11998 ft | 391 kts | 50° |
| 2026-05-07 11:30 | 39.09302 | -76.56448 | 12563 ft | 398 kts | 51° |
| 2026-05-07 11:31 | 39.10826 | -76.53445 | 13114 ft | 405 kts | 62° |
| 2026-05-07 11:31 | 39.11912 | -76.50080 | 13679 ft | 409 kts | 74° |
| 2026-05-07 11:31 | 39.12506 | -76.46483 | 14212 ft | 413 kts | 84° |
| 2026-05-07 11:31 | 39.12906 | -76.42801 | 14771 ft | 418 kts | 84° |
| 2026-05-07 11:32 | 39.13740 | -76.35293 | 15818 ft | 429 kts | 84° |
| 2026-05-07 11:32 | 39.14169 | -76.31513 | 16342 ft | 435 kts | 84° |
| 2026-05-07 11:32 | 39.14608 | -76.27642 | 16863 ft | 440 kts | 84° |
| 2026-05-07 11:33 | 39.15047 | -76.23722 | 17365 ft | 445 kts | 84° |
| 2026-05-07 11:33 | 39.15490 | -76.19760 | 17855 ft | 450 kts | 84° |
| 2026-05-07 11:33 | 39.15947 | -76.15738 | 18323 ft | 456 kts | 84° |
| 2026-05-07 11:33 | 39.16415 | -76.11683 | 18825 ft | 460 kts | 84° |
| 2026-05-07 11:34 | 39.16891 | -76.07587 | 19312 ft | 464 kts | 84° |
| 2026-05-07 11:34 | 39.17368 | -76.03452 | 19790 ft | 469 kts | 84° |
| 2026-05-07 11:34 | 39.17847 | -75.99284 | 20281 ft | 472 kts | 84° |
| 2026-05-07 11:34 | 39.18456 | -75.95106 | 20781 ft | 477 kts | 76° |
| 2026-05-07 11:35 | 39.19551 | -75.91059 | 21290 ft | 480 kts | 65° |
| 2026-05-07 11:35 | 39.21149 | -75.87266 | 21735 ft | 482 kts | 54° |
| 2026-05-07 11:35 | 39.23200 | -75.83865 | 22191 ft | 481 kts | 42° |
| 2026-05-07 11:35 | 39.25637 | -75.80928 | 22642 ft | 479 kts | 34° |
| 2026-05-07 11:36 | 39.28189 | -75.78154 | 23073 ft | 482 kts | 34° |
| 2026-05-07 11:36 | 39.30763 | -75.75355 | 23494 ft | 485 kts | 34° |
| 2026-05-07 11:36 | 39.33353 | -75.72528 | 23910 ft | 489 kts | 34° |
| 2026-05-07 11:36 | 39.35953 | -75.69682 | 24274 ft | 493 kts | 34° |
| 2026-05-07 11:37 | 39.38576 | -75.66799 | 24650 ft | 496 kts | 34° |
| 2026-05-07 11:37 | 39.41213 | -75.63894 | 25026 ft | 499 kts | 34° |
| 2026-05-07 11:37 | 39.43868 | -75.60972 | 25379 ft | 503 kts | 33° |
| 2026-05-07 11:37 | 39.46538 | -75.58037 | 25743 ft | 506 kts | 33° |
| 2026-05-07 11:38 | 39.48318 | -75.56077 | 25966 ft | 508 kts | 33° |
| 2026-05-07 11:38 | 39.51016 | -75.53104 | 26299 ft | 511 kts | 33° |
| 2026-05-07 11:38 | 39.53730 | -75.50110 | 26643 ft | 514 kts | 33° |
| 2026-05-07 11:38 | 39.57377 | -75.46080 | 27075 ft | 518 kts | 33° |
| 2026-05-07 11:39 | 39.59203 | -75.44062 | 27278 ft | 520 kts | 33° |
| 2026-05-07 11:39 | 39.62894 | -75.39981 | 27710 ft | 523 kts | 32° |
| 2026-05-07 11:39 | 39.64730 | -75.37950 | 27940 ft | 525 kts | 33° |
| 2026-05-07 11:39 | 39.67516 | -75.34862 | 28251 ft | 528 kts | 33° |
| 2026-05-07 11:40 | 39.71218 | -75.30743 | 28663 ft | 531 kts | 32° |
| 2026-05-07 11:40 | 39.73114 | -75.28627 | 28875 ft | 533 kts | 32° |
| 2026-05-07 11:40 | 39.75931 | -75.25482 | 29162 ft | 535 kts | 32° |
| 2026-05-07 11:40 | 39.78738 | -75.22284 | 29427 ft | 542 kts | 36° |
| 2026-05-07 11:41 | 39.81324 | -75.18669 | 29716 ft | 549 kts | 42° |
| 2026-05-07 11:41 | 39.83850 | -75.14910 | 30001 ft | 552 kts | 42° |
| 2026-05-07 11:41 | 39.86382 | -75.11146 | 30254 ft | 554 kts | 42° |
| 2026-05-07 11:41 | 39.88923 | -75.07365 | 30543 ft | 556 kts | 41° |
| 2026-05-07 11:42 | 39.91471 | -75.03573 | 30816 ft | 558 kts | 41° |
| 2026-05-07 11:42 | 39.94035 | -74.99753 | 31080 ft | 560 kts | 41° |
| 2026-05-07 11:42 | 39.96577 | -74.95887 | 31366 ft | 565 kts | 45° |
| 2026-05-07 11:42 | 39.98851 | -74.91667 | 31706 ft | 570 kts | 50° |
| 2026-05-07 11:43 | 40.01038 | -74.87362 | 32044 ft | 570 kts | 50° |
| 2026-05-07 11:43 | 40.03230 | -74.83053 | 32329 ft | 571 kts | 50° |
| 2026-05-07 11:43 | 40.05411 | -74.78776 | 32506 ft | 575 kts | 50° |
| 2026-05-07 11:43 | 40.07630 | -74.74425 | 32765 ft | 576 kts | 50° |
| 2026-05-07 11:44 | 40.09849 | -74.70068 | 33068 ft | 577 kts | 49° |
| 2026-05-07 11:44 | 40.12066 | -74.65704 | 33400 ft | 576 kts | 50° |
| 2026-05-07 11:44 | 40.14276 | -74.61336 | 33741 ft | 575 kts | 49° |
| 2026-05-07 11:44 | 40.16475 | -74.56970 | 34053 ft | 575 kts | 49° |
| 2026-05-07 11:45 | 40.18717 | -74.52656 | 34348 ft | 570 kts | 44° |
| 2026-05-07 11:45 | 40.21262 | -74.48756 | 34632 ft | 558 kts | 34° |
| 2026-05-07 11:45 | 40.24094 | -74.45384 | 34921 ft | 544 kts | 27° |
| 2026-05-07 11:45 | 40.27039 | -74.42264 | 35210 ft | 544 kts | 27° |
| 2026-05-07 11:46 | 40.29975 | -74.39141 | 35488 ft | 544 kts | 27° |
| 2026-05-07 11:46 | 40.32909 | -74.36007 | 35782 ft | 544 kts | 27° |
| 2026-05-07 11:46 | 40.35835 | -74.32866 | 36056 ft | 544 kts | 27° |
| 2026-05-07 11:46 | 40.38762 | -74.29721 | 36318 ft | 544 kts | 27° |
| 2026-05-07 11:47 | 40.41688 | -74.26582 | 36535 ft | 544 kts | 27° |
| 2026-05-07 11:47 | 40.44619 | -74.23432 | 36803 ft | 543 kts | 27° |
| 2026-05-07 11:47 | 40.47540 | -74.20286 | 36923 ft | 540 kts | 26° |
| 2026-05-07 11:48 | 40.53286 | -74.14056 | 36942 ft | 531 kts | 26° |
| 2026-05-07 11:48 | 40.58976 | -74.07904 | 36931 ft | 529 kts | 26° |
| 2026-05-07 11:49 | 40.60722 | -74.06026 | 36932 ft | 528 kts | 26° |
| 2026-05-07 11:49 | 40.66411 | -73.99897 | 36942 ft | 528 kts | 26° |
| 2026-05-07 11:50 | 40.72089 | -73.93729 | 36943 ft | 529 kts | 26° |
| 2026-05-07 11:50 | 40.77757 | -73.87545 | 36945 ft | 529 kts | 27° |
| 2026-05-07 11:51 | 40.83421 | -73.81340 | 36936 ft | 532 kts | 30° |
| 2026-05-07 11:51 | 40.86066 | -73.77830 | 36929 ft | 547 kts | 40° |
| 2026-05-07 11:51 | 40.88341 | -73.73741 | 36912 ft | 560 kts | 51° |
| 2026-05-07 11:52 | 40.92369 | -73.64888 | 36921 ft | 562 kts | 52° |
| 2026-05-07 11:52 | 40.96404 | -73.56024 | 36918 ft | 563 kts | 52° |
| 2026-05-07 11:53 | 41.00438 | -73.47149 | 36915 ft | 563 kts | 52° |
| 2026-05-07 11:53 | 41.04468 | -73.38239 | 36922 ft | 564 kts | 52° |
| 2026-05-07 11:54 | 41.08494 | -73.29322 | 36930 ft | 564 kts | 52° |
| 2026-05-07 11:54 | 41.12516 | -73.20390 | 36928 ft | 564 kts | 52° |
| 2026-05-07 11:55 | 41.16530 | -73.11454 | 36922 ft | 564 kts | 52° |
| 2026-05-07 11:55 | 41.20601 | -73.02653 | 36917 ft | 562 kts | 50° |
| 2026-05-07 11:56 | 41.24783 | -72.93868 | 36922 ft | 562 kts | 50° |
| 2026-05-07 11:56 | 41.28953 | -72.85072 | 36911 ft | 563 kts | 51° |
| 2026-05-07 11:57 | 41.33088 | -72.76218 | 36913 ft | 563 kts | 51° |
| 2026-05-07 11:57 | 41.37202 | -72.67343 | 36929 ft | 563 kts | 51° |
| 2026-05-07 11:58 | 41.41322 | -72.58463 | 36929 ft | 564 kts | 51° |
| 2026-05-07 11:58 | 41.45432 | -72.49572 | 36919 ft | 564 kts | 51° |
| 2026-05-07 11:59 | 41.49539 | -72.40657 | 36914 ft | 564 kts | 51° |
| 2026-05-07 11:59 | 41.53651 | -72.31713 | 36917 ft | 565 kts | 52° |
| 2026-05-07 12:00 | 41.57757 | -72.22769 | 36917 ft | 565 kts | 51° |
| 2026-05-07 12:00 | 41.61869 | -72.13807 | 36915 ft | 566 kts | 52° |
| 2026-05-07 12:01 | 41.65971 | -72.04817 | 36910 ft | 566 kts | 52° |
| 2026-05-07 12:01 | 41.70059 | -71.95816 | 36907 ft | 567 kts | 52° |
| 2026-05-07 12:01 | 41.72105 | -71.91305 | 36797 ft | 567 kts | 53° |
| 2026-05-07 12:02 | 41.74144 | -71.86799 | 36540 ft | 564 kts | 53° |
| 2026-05-07 12:02 | 41.76173 | -71.82304 | 36292 ft | 564 kts | 53° |
| 2026-05-07 12:02 | 41.78205 | -71.77803 | 36046 ft | 566 kts | 53° |
| 2026-05-07 12:02 | 41.80244 | -71.73280 | 35769 ft | 568 kts | 53° |
| 2026-05-07 12:03 | 41.82292 | -71.68733 | 35040 ft | 573 kts | 53° |
| 2026-05-07 12:03 | 41.84324 | -71.64138 | 34518 ft | 573 kts | 58° |
| 2026-05-07 12:03 | 41.86088 | -71.59360 | 34020 ft | 573 kts | 60° |
| 2026-05-07 12:03 | 41.87820 | -71.54545 | 33507 ft | 571 kts | 60° |
| 2026-05-07 12:04 | 41.89538 | -71.49752 | 33003 ft | 569 kts | 61° |
| 2026-05-07 12:04 | 41.91249 | -71.44972 | 32492 ft | 567 kts | 61° |
| 2026-05-07 12:04 | 41.92956 | -71.40210 | 31977 ft | 565 kts | 61° |
| 2026-05-07 12:04 | 41.94656 | -71.35470 | 31463 ft | 562 kts | 61° |
| 2026-05-07 12:05 | 41.96348 | -71.30750 | 30955 ft | 560 kts | 62° |
| 2026-05-07 12:05 | 41.98033 | -71.26044 | 30454 ft | 557 kts | 62° |